createdAt,value
2023-07-11T00:00:10.789Z,72.87
2023-07-11T00:01:10.852Z,72.30
2023-07-11T00:02:10.984Z,72.20
2023-07-11T00:03:11.025Z,73.36
2023-07-11T00:04:11.011Z,72.35
2023-07-11T00:05:11.010Z,71.50
2023-07-11T00:06:11.049Z,71.22
2023-07-11T00:07:11.093Z,70.41
2023-07-11T00:08:11.198Z,70.49
2023-07-11T00:09:11.182Z,69.31
2023-07-11T00:10:11.229Z,69.73
2023-07-11T00:11:11.262Z,69.64
2023-07-11T00:12:11.306Z,70.67
2023-07-11T00:13:11.293Z,70.71
2023-07-11T00:14:11.367Z,70.80
2023-07-11T00:15:11.287Z,70.91
2023-07-11T00:16:11.475Z,71.41
2023-07-11T00:17:11.291Z,71.23
2023-07-11T00:18:11.267Z,72.00
2023-07-11T00:19:11.255Z,71.51
2023-07-11T00:20:11.250Z,72.21
2023-07-11T00:21:11.235Z,71.48
2023-07-11T00:22:11.234Z,70.74
2023-07-11T00:23:11.222Z,70.64
2023-07-11T00:24:11.217Z,70.09
2023-07-11T00:25:11.211Z,70.28
2023-07-11T00:26:11.236Z,69.77
2023-07-11T00:27:11.286Z,69.88
2023-07-11T00:28:11.319Z,69.10
2023-07-11T00:29:11.374Z,69.94
2023-07-11T00:30:11.460Z,69.45
2023-07-11T00:31:11.602Z,70.00
2023-07-11T00:32:11.501Z,69.95
2023-07-11T00:33:11.551Z,69.76
2023-07-11T00:34:11.634Z,69.27
2023-07-11T00:35:11.647Z,68.87
2023-07-11T00:36:11.676Z,69.75
2023-07-11T00:37:11.728Z,68.95
2023-07-11T00:38:11.789Z,69.37
2023-07-11T00:39:11.825Z,70.51
2023-07-11T00:40:11.863Z,69.44
2023-07-11T00:41:11.899Z,69.20
2023-07-11T00:42:11.954Z,68.28
2023-07-11T00:43:11.998Z,67.84
2023-07-11T00:44:12.050Z,67.50
2023-07-11T00:45:12.099Z,67.41
2023-07-11T00:46:12.308Z,67.17
2023-07-11T00:47:12.211Z,67.22
2023-07-11T00:48:12.241Z,67.22
2023-07-11T00:49:12.291Z,67.12
2023-07-11T00:50:12.342Z,66.78
2023-07-11T00:51:12.374Z,67.16
2023-07-11T00:52:12.432Z,66.68
2023-07-11T00:53:12.477Z,66.76
2023-07-11T00:54:12.524Z,65.99
2023-07-11T00:55:12.567Z,66.08
2023-07-11T00:56:12.625Z,66.12
2023-07-11T00:57:12.665Z,65.31
2023-07-11T00:58:12.727Z,64.78
2023-07-11T00:59:12.774Z,65.60
2023-07-11T01:00:12.827Z,64.47
2023-07-11T01:01:12.925Z,65.40
2023-07-11T01:02:12.926Z,65.78
2023-07-11T01:03:13.098Z,65.02
2023-07-11T01:04:13.104Z,64.58
2023-07-11T01:05:13.085Z,65.37
2023-07-11T01:06:13.141Z,64.24
2023-07-11T01:07:13.190Z,64.54
2023-07-11T01:08:13.240Z,64.51
2023-07-11T01:09:13.284Z,66.24
2023-07-11T01:10:13.335Z,65.18
2023-07-11T01:11:13.389Z,64.81
2023-07-11T01:12:13.444Z,63.44
2023-07-11T01:13:13.507Z,63.97
2023-07-11T01:14:13.638Z,64.51
2023-07-11T01:15:13.608Z,63.69
2023-07-11T01:16:13.678Z,62.69
2023-07-11T01:17:13.709Z,62.17
2023-07-11T01:18:13.774Z,62.83
2023-07-11T01:19:13.821Z,62.26
2023-07-11T01:20:13.872Z,61.83
2023-07-11T01:21:13.915Z,62.27
2023-07-11T01:22:13.971Z,62.70
2023-07-11T01:23:14.034Z,63.01
2023-07-11T01:24:14.083Z,63.69
2023-07-11T01:25:14.163Z,62.71
2023-07-11T01:26:14.189Z,62.88
2023-07-11T01:27:14.238Z,61.89
2023-07-11T01:28:14.561Z,62.78
2023-07-11T01:29:14.330Z,62.16
2023-07-11T01:30:14.378Z,61.10
2023-07-11T01:31:14.429Z,61.52
2023-07-11T01:32:14.482Z,61.72
2023-07-11T01:33:14.530Z,61.82
2023-07-11T01:34:14.572Z,62.85
2023-07-11T01:35:14.614Z,61.98
2023-07-11T01:36:14.663Z,61.67
2023-07-11T01:37:14.735Z,61.47
2023-07-11T01:38:14.754Z,61.23
2023-07-11T01:39:14.796Z,61.54
2023-07-11T01:40:14.858Z,61.25
2023-07-11T01:41:14.888Z,60.86
2023-07-11T01:42:14.941Z,61.14
2023-07-11T01:43:14.990Z,60.68
2023-07-11T01:44:15.053Z,61.11
2023-07-11T01:45:15.096Z,60.98
2023-07-11T01:46:15.170Z,61.24
2023-07-11T01:47:15.197Z,61.19
2023-07-11T01:48:15.268Z,60.65
2023-07-11T01:49:15.306Z,60.63
2023-07-11T01:50:15.369Z,61.03
2023-07-11T01:51:15.411Z,61.37
2023-07-11T01:52:15.467Z,60.56
2023-07-11T01:53:15.513Z,60.76
2023-07-11T01:54:15.556Z,61.22
2023-07-11T01:55:15.611Z,60.44
2023-07-11T01:56:15.659Z,60.54
2023-07-11T01:57:15.720Z,60.36
2023-07-11T01:58:15.765Z,60.06
2023-07-11T01:59:15.812Z,59.79
2023-07-11T02:00:15.867Z,60.00
2023-07-11T02:01:15.944Z,60.18
2023-07-11T02:02:15.981Z,60.60
2023-07-11T02:03:16.162Z,59.31
2023-07-11T02:04:16.075Z,59.98
2023-07-11T02:05:16.119Z,60.37
2023-07-11T02:06:16.125Z,60.38
2023-07-11T02:07:16.131Z,60.44
2023-07-11T02:08:16.127Z,60.53
2023-07-11T02:09:16.129Z,59.74
2023-07-11T02:10:16.136Z,59.65
2023-07-11T02:11:16.150Z,60.27
2023-07-11T02:12:16.149Z,60.13
2023-07-11T02:13:16.141Z,59.88
2023-07-11T02:14:16.192Z,60.84
2023-07-11T02:15:16.133Z,60.20
2023-07-11T02:16:16.216Z,59.41
2023-07-11T02:17:16.385Z,59.39
2023-07-11T02:18:16.179Z,58.94
2023-07-11T02:19:16.171Z,59.37
2023-07-11T02:20:16.225Z,59.71
2023-07-11T02:21:16.288Z,58.78
2023-07-11T02:22:16.322Z,60.09
2023-07-11T02:23:16.431Z,59.40
2023-07-11T02:24:16.417Z,59.00
2023-07-11T02:25:16.461Z,58.92
2023-07-11T02:26:16.507Z,58.92
2023-07-11T02:27:16.560Z,58.35
2023-07-11T02:28:16.611Z,58.23
2023-07-11T02:29:16.654Z,58.03
2023-07-11T02:30:16.709Z,58.61
2023-07-11T02:31:16.767Z,58.71
2023-07-11T02:32:16.791Z,58.23
2023-07-11T02:33:16.844Z,58.21
2023-07-11T02:34:16.890Z,58.20
2023-07-11T02:35:16.923Z,57.61
2023-07-11T02:36:16.990Z,57.20
2023-07-11T02:37:17.023Z,57.70
2023-07-11T02:38:17.077Z,58.13
2023-07-11T02:39:17.124Z,57.82
2023-07-11T02:40:17.173Z,58.04
2023-07-11T02:41:17.213Z,58.01
2023-07-11T02:42:17.266Z,57.63
2023-07-11T02:43:17.308Z,59.23
2023-07-11T02:44:17.353Z,57.14
2023-07-11T02:45:17.404Z,56.96
2023-07-11T02:46:17.500Z,56.49
2023-07-11T02:47:17.501Z,55.93
2023-07-11T02:48:17.542Z,55.44
2023-07-11T02:49:17.596Z,56.92
2023-07-11T02:50:17.649Z,55.01
2023-07-11T02:51:17.697Z,55.15
2023-07-11T02:52:17.768Z,54.81
2023-07-11T02:53:17.815Z,53.57
2023-07-11T02:54:17.864Z,53.81
2023-07-11T02:55:17.933Z,54.00
2023-07-11T02:56:17.971Z,53.91
2023-07-11T02:57:18.039Z,52.87
2023-07-11T02:58:18.088Z,52.99
2023-07-11T02:59:18.094Z,52.99
2023-07-11T03:00:18.090Z,52.48
2023-07-11T03:01:18.163Z,52.74
2023-07-11T03:02:18.105Z,50.79
2023-07-11T03:03:18.119Z,50.88
2023-07-11T03:04:18.121Z,50.50
2023-07-11T03:05:18.148Z,49.49
2023-07-11T03:06:18.103Z,49.29
2023-07-11T03:07:18.245Z,49.78
2023-07-11T03:08:18.121Z,47.73
2023-07-11T03:09:18.136Z,46.65
2023-07-11T03:10:18.128Z,44.65
2023-07-11T03:11:18.171Z,43.35
2023-07-11T03:12:18.237Z,41.58
2023-07-11T03:13:18.246Z,41.38
2023-07-11T03:14:18.295Z,39.14
2023-07-11T03:15:18.263Z,37.72
2023-07-11T03:16:18.267Z,36.73
2023-07-11T03:17:18.321Z,34.69
2023-07-11T03:18:18.285Z,33.67
2023-07-11T03:19:18.290Z,30.96
2023-07-11T03:20:18.292Z,30.27
2023-07-11T03:21:18.302Z,28.23
2023-07-11T03:22:18.320Z,27.55
2023-07-11T03:23:18.335Z,25.00
2023-07-11T03:24:18.336Z,25.29
2023-07-11T03:25:18.403Z,25.02
2023-07-11T03:26:18.475Z,25.41
2023-07-11T03:27:18.543Z,25.00
2023-07-11T03:28:18.610Z,26.02
2023-07-11T03:29:18.700Z,25.12
2023-07-11T03:30:18.752Z,25.16
2023-07-11T03:31:18.877Z,25.58
2023-07-11T03:32:18.891Z,25.27
2023-07-11T03:33:18.969Z,25.05
2023-07-11T03:34:19.046Z,25.43
2023-07-11T03:35:19.108Z,25.17
2023-07-11T03:36:19.129Z,25.21
2023-07-11T03:37:19.127Z,25.18
2023-07-11T03:38:19.164Z,25.20
2023-07-11T03:39:19.155Z,25.31
2023-07-11T03:40:19.145Z,24.98
2023-07-11T03:41:19.160Z,25.84
2023-07-11T03:42:19.196Z,25.55
2023-07-11T03:43:19.177Z,25.18
2023-07-11T03:44:19.191Z,25.00
2023-07-11T03:45:19.277Z,25.00
2023-07-11T03:46:19.391Z,25.27
2023-07-11T03:47:19.424Z,25.25
2023-07-11T03:48:19.499Z,25.09
2023-07-11T03:49:19.564Z,25.20
2023-07-11T03:50:19.640Z,26.63
2023-07-11T03:51:19.716Z,26.16
2023-07-11T03:52:19.797Z,26.58
2023-07-11T03:53:19.891Z,26.37
2023-07-11T03:54:19.877Z,26.40
2023-07-11T03:55:19.886Z,26.42
2023-07-11T03:56:19.885Z,26.45
2023-07-11T03:57:19.902Z,26.59
2023-07-11T03:58:19.910Z,26.05
2023-07-11T03:59:19.929Z,26.48
2023-07-11T04:00:19.928Z,26.64
2023-07-11T04:01:19.984Z,26.26
2023-07-11T04:02:19.993Z,26.52
2023-07-11T04:03:20.143Z,26.90
2023-07-11T04:04:20.155Z,27.26
2023-07-11T04:05:20.246Z,26.48
2023-07-11T04:06:20.293Z,28.23
2023-07-11T04:07:20.362Z,29.23
2023-07-11T04:08:20.425Z,29.21
2023-07-11T04:09:20.503Z,29.55
2023-07-11T04:10:20.571Z,30.11
2023-07-11T04:11:20.631Z,30.40
2023-07-11T04:12:20.713Z,32.34
2023-07-11T04:13:20.788Z,31.78
2023-07-11T04:14:20.840Z,32.25
2023-07-11T04:15:20.899Z,32.48
2023-07-11T04:16:20.954Z,34.16
2023-07-11T04:17:21.070Z,33.32
2023-07-11T04:18:21.149Z,33.10
2023-07-11T04:19:21.472Z,33.79
2023-07-11T04:20:21.187Z,33.53
2023-07-11T04:21:21.241Z,32.37
2023-07-11T04:22:21.337Z,33.09
2023-07-11T04:23:21.434Z,34.23
2023-07-11T04:24:21.512Z,34.91
2023-07-11T04:25:21.539Z,34.93
2023-07-11T04:26:21.542Z,34.64
2023-07-11T04:27:21.554Z,35.14
2023-07-11T04:28:21.580Z,35.05
2023-07-11T04:29:21.593Z,35.76
2023-07-11T04:30:21.614Z,35.33
2023-07-11T04:31:21.742Z,35.37
2023-07-11T04:32:21.677Z,35.73
2023-07-11T04:33:21.654Z,35.43
2023-07-11T04:34:21.672Z,34.60
2023-07-11T04:35:21.708Z,36.48
2023-07-11T04:36:21.704Z,36.14
2023-07-11T04:37:21.744Z,36.49
2023-07-11T04:38:21.746Z,35.79
2023-07-11T04:39:21.776Z,36.31
2023-07-11T04:40:21.804Z,36.02
2023-07-11T04:41:21.835Z,36.75
2023-07-11T04:42:21.877Z,37.13
2023-07-11T04:43:21.928Z,37.41
2023-07-11T04:44:21.983Z,37.87
2023-07-11T04:45:21.992Z,36.61
2023-07-11T04:46:22.101Z,38.14
2023-07-11T04:47:22.049Z,38.09
2023-07-11T04:48:22.066Z,36.85
2023-07-11T04:49:22.090Z,38.43
2023-07-11T04:50:22.135Z,38.19
2023-07-11T04:51:22.202Z,37.70
2023-07-11T04:52:22.213Z,37.82
2023-07-11T04:53:22.250Z,37.97
2023-07-11T04:54:22.405Z,39.54
2023-07-11T04:55:22.289Z,38.09
2023-07-11T04:56:22.322Z,38.29
2023-07-11T04:57:22.365Z,38.82
2023-07-11T04:58:22.418Z,38.54
2023-07-11T04:59:22.431Z,37.95
2023-07-11T05:00:22.443Z,37.84
2023-07-11T05:01:22.988Z,38.88
2023-07-11T05:02:22.598Z,38.53
2023-07-11T05:03:22.518Z,39.59
2023-07-11T05:04:22.745Z,38.14
2023-07-11T05:05:22.595Z,37.52
2023-07-11T05:06:22.599Z,38.65
2023-07-11T05:07:22.629Z,37.76
2023-07-11T05:08:22.654Z,39.10
2023-07-11T05:09:22.669Z,40.40
2023-07-11T05:10:22.687Z,39.96
2023-07-11T05:11:22.709Z,39.99
2023-07-11T05:12:22.743Z,39.94
2023-07-11T05:13:22.754Z,39.51
2023-07-11T05:14:22.779Z,40.35
2023-07-11T05:15:22.838Z,40.41
2023-07-11T05:16:22.978Z,40.87
2023-07-11T05:17:22.902Z,40.41
2023-07-11T05:18:22.866Z,40.36
2023-07-11T05:19:22.867Z,40.10
2023-07-11T05:20:22.894Z,40.36
2023-07-11T05:21:22.921Z,41.77
2023-07-11T05:22:22.939Z,41.82
2023-07-11T05:23:22.935Z,41.89
2023-07-11T05:24:22.949Z,42.12
2023-07-11T05:25:22.958Z,41.82
2023-07-11T05:26:22.967Z,41.97
2023-07-11T05:27:22.984Z,41.89
2023-07-11T05:28:22.998Z,43.12
2023-07-11T05:29:23.008Z,41.86
2023-07-11T05:30:23.017Z,42.17
2023-07-11T05:31:23.156Z,42.03
2023-07-11T05:32:23.076Z,42.18
2023-07-11T05:33:23.066Z,43.04
2023-07-11T05:34:23.082Z,43.83
2023-07-11T05:35:23.095Z,41.79
2023-07-11T05:36:23.104Z,42.52
2023-07-11T05:37:23.130Z,43.25
2023-07-11T05:38:23.138Z,41.28
2023-07-11T05:39:23.156Z,42.24
2023-07-11T05:40:24.956Z,42.69
2023-07-11T05:41:23.178Z,42.48
2023-07-11T05:42:23.195Z,42.50
2023-07-11T05:43:23.210Z,42.74
2023-07-11T05:44:23.216Z,43.13
2023-07-11T05:45:23.230Z,43.84
2023-07-11T05:46:23.293Z,43.47
2023-07-11T05:47:23.402Z,44.34
2023-07-11T05:48:23.272Z,44.10
2023-07-11T05:49:23.292Z,44.34
2023-07-11T05:50:23.309Z,45.11
2023-07-11T05:51:23.330Z,44.90
2023-07-11T05:52:23.330Z,45.21
2023-07-11T05:53:23.355Z,46.40
2023-07-11T05:54:23.353Z,47.17
2023-07-11T05:55:23.370Z,47.16
2023-07-11T05:56:23.383Z,47.77
2023-07-11T05:57:23.415Z,47.28
2023-07-11T05:58:23.417Z,48.51
2023-07-11T05:59:23.432Z,48.97
2023-07-11T06:00:23.448Z,49.46
2023-07-11T06:01:23.483Z,49.96
2023-07-11T06:02:23.496Z,50.74
2023-07-11T06:03:23.523Z,50.03
2023-07-11T06:04:23.520Z,51.24
2023-07-11T06:05:23.525Z,51.57
2023-07-11T06:06:23.530Z,52.07
2023-07-11T06:07:23.547Z,52.66
2023-07-11T06:08:23.563Z,52.85
2023-07-11T06:09:23.580Z,52.35
2023-07-11T06:10:23.584Z,52.67
2023-07-11T06:11:23.604Z,53.32
2023-07-11T06:12:23.607Z,54.09
2023-07-11T06:13:23.640Z,52.76
2023-07-11T06:14:23.685Z,53.29
2023-07-11T06:15:23.651Z,52.95
2023-07-11T06:16:23.686Z,53.07
2023-07-11T06:17:23.688Z,52.76
2023-07-11T06:18:23.731Z,53.58
2023-07-11T06:19:23.766Z,53.14
2023-07-11T06:20:23.789Z,54.58
2023-07-11T06:21:23.820Z,53.28
2023-07-11T06:22:23.891Z,53.95
2023-07-11T06:23:23.961Z,54.82
2023-07-11T06:24:24.000Z,54.80
2023-07-11T06:25:24.071Z,55.01
2023-07-11T06:26:24.142Z,54.60
2023-07-11T06:27:24.210Z,55.25
2023-07-11T06:28:24.266Z,54.71
2023-07-11T06:29:24.338Z,54.98
2023-07-11T06:30:24.410Z,54.95
2023-07-11T06:31:24.535Z,55.50
2023-07-11T06:32:24.582Z,55.44
2023-07-11T06:33:24.660Z,56.14
2023-07-11T06:34:24.731Z,56.83
2023-07-11T06:35:24.811Z,56.42
2023-07-11T06:36:24.893Z,56.78
2023-07-11T06:37:24.974Z,57.56
2023-07-11T06:38:25.052Z,57.18
2023-07-11T06:39:25.128Z,57.33
2023-07-11T06:40:25.189Z,57.32
2023-07-11T06:41:25.284Z,56.56
2023-07-11T06:42:25.353Z,56.94
2023-07-11T06:43:25.439Z,58.36
2023-07-11T06:44:25.499Z,58.15
2023-07-11T06:45:25.598Z,58.20
2023-07-11T06:46:25.678Z,61.32
2023-07-11T06:47:25.780Z,61.87
2023-07-11T06:48:25.798Z,63.00
2023-07-11T06:49:25.876Z,63.43
2023-07-11T06:50:26.417Z,63.54
2023-07-11T06:51:26.014Z,62.60
2023-07-11T06:52:26.065Z,63.98
2023-07-11T06:53:26.138Z,64.35
2023-07-11T06:54:26.201Z,64.66
2023-07-11T06:55:26.278Z,62.66
2023-07-11T06:56:26.366Z,61.64
2023-07-11T06:57:26.432Z,62.99
2023-07-11T06:58:26.501Z,60.27
2023-07-11T06:59:26.565Z,59.03
2023-07-11T07:00:26.640Z,60.29
2023-07-11T07:01:36.768Z,59.57
2023-07-11T07:02:27.771Z,59.61
2023-07-11T07:03:26.802Z,57.88
2023-07-11T07:04:26.734Z,59.77
2023-07-11T07:05:26.717Z,62.18
2023-07-11T07:06:26.731Z,63.33
2023-07-11T07:07:26.712Z,66.67
2023-07-11T07:08:26.734Z,69.09
2023-07-11T07:09:27.829Z,74.21
2023-07-11T07:10:26.722Z,77.75
2023-07-11T07:11:26.786Z,84.81
2023-07-11T07:12:26.800Z,94.04
2023-07-11T07:13:26.850Z,97.04
2023-07-11T07:14:26.956Z,101.94
2023-07-11T07:15:26.963Z,114.02
2023-07-11T07:16:27.051Z,121.63
2023-07-11T07:17:27.109Z,128.86
2023-07-11T07:18:27.133Z,138.10
2023-07-11T07:19:27.197Z,138.94
2023-07-11T07:20:27.255Z,134.27
2023-07-11T07:21:27.308Z,134.61
2023-07-11T07:22:27.387Z,135.40
2023-07-11T07:23:27.785Z,139.78
2023-07-11T07:24:27.478Z,138.73
2023-07-11T07:25:27.580Z,140.79
2023-07-11T07:26:27.616Z,141.52
2023-07-11T07:27:29.197Z,140.40
2023-07-11T07:28:27.751Z,139.51
2023-07-11T07:29:27.763Z,140.94
2023-07-11T07:30:27.828Z,142.48
2023-07-11T07:31:27.920Z,142.47
2023-07-11T07:32:27.998Z,138.46
2023-07-11T07:33:27.959Z,138.00
2023-07-11T07:34:29.999Z,133.61
2023-07-11T07:35:27.923Z,131.71
2023-07-11T07:36:27.937Z,131.05
2023-07-11T07:37:27.933Z,130.61
2023-07-11T07:38:27.942Z,130.79
2023-07-11T07:39:27.935Z,129.56
2023-07-11T07:40:27.944Z,128.54
2023-07-11T07:41:27.951Z,126.64
2023-07-11T07:42:28.014Z,126.69
2023-07-11T07:43:28.112Z,125.45
2023-07-11T07:44:28.117Z,124.60
2023-07-11T07:45:28.166Z,124.43
2023-07-11T07:46:28.236Z,124.83
2023-07-11T07:47:28.292Z,123.74
2023-07-11T07:48:28.334Z,122.74
2023-07-11T07:49:29.521Z,122.39
2023-07-11T07:50:28.346Z,122.51
2023-07-11T07:51:28.337Z,122.58
2023-07-11T07:52:28.338Z,119.89
2023-07-11T07:53:28.333Z,117.52
2023-07-11T07:54:28.316Z,116.66
2023-07-11T07:55:28.316Z,116.87
2023-07-11T07:56:28.319Z,114.41
2023-07-11T07:57:28.321Z,116.33
2023-07-11T07:58:42.208Z,113.05
2023-07-11T07:59:29.309Z,113.02
2023-07-11T08:00:28.308Z,113.04
2023-07-11T08:01:28.295Z,111.26
2023-07-11T08:02:28.650Z,107.11
2023-07-11T08:03:28.362Z,104.67
2023-07-11T08:04:28.291Z,100.10
2023-07-11T08:05:28.258Z,100.32
2023-07-11T08:06:28.284Z,102.16
2023-07-11T08:07:28.247Z,104.12
2023-07-11T08:08:28.267Z,104.38
2023-07-11T08:09:28.254Z,104.20
2023-07-11T08:10:28.232Z,103.68
2023-07-11T08:11:28.212Z,101.16
2023-07-11T08:12:28.210Z,100.54
2023-07-11T08:13:30.131Z,99.28
2023-07-11T08:14:28.246Z,99.35
2023-07-11T08:15:28.198Z,99.41
2023-07-11T08:16:31.748Z,99.61
2023-07-11T08:17:29.339Z,99.32
2023-07-11T08:18:28.188Z,99.14
2023-07-11T08:19:28.180Z,99.56
2023-07-11T08:20:28.178Z,97.46
2023-07-11T08:21:28.217Z,98.45
2023-07-11T08:22:28.171Z,99.85
2023-07-11T08:23:28.168Z,101.09
2023-07-11T08:24:28.170Z,101.22
2023-07-11T08:25:28.163Z,101.62
2023-07-11T08:26:28.168Z,88.57
2023-07-11T08:27:28.169Z,77.23
2023-07-11T08:28:28.159Z,65.29
2023-07-11T08:29:30.251Z,56.62
2023-07-11T08:30:28.177Z,55.49
2023-07-11T08:31:28.183Z,57.37
2023-07-11T08:32:28.171Z,60.33
2023-07-11T08:33:28.124Z,64.29
2023-07-11T08:34:28.111Z,70.81
2023-07-11T08:35:28.080Z,71.83
2023-07-11T08:36:28.076Z,68.58
2023-07-11T08:37:28.070Z,63.11
2023-07-11T08:38:28.051Z,63.69
2023-07-11T08:39:28.027Z,64.52
2023-07-11T08:40:41.989Z,66.72
2023-07-11T08:41:29.011Z,66.83
2023-07-11T08:42:28.011Z,66.78
2023-07-11T08:43:28.010Z,66.84
2023-07-11T08:44:27.983Z,67.24
2023-07-11T08:45:27.959Z,67.25
2023-07-11T08:46:27.987Z,67.56
2023-07-11T08:47:27.976Z,68.51
2023-07-11T08:48:27.924Z,69.91
2023-07-11T08:49:27.893Z,69.93
2023-07-11T08:50:27.886Z,73.21
2023-07-11T08:51:27.883Z,76.31
2023-07-11T08:52:27.840Z,76.70
2023-07-11T08:53:27.826Z,78.94
2023-07-11T08:54:27.834Z,81.69
2023-07-11T08:55:27.804Z,84.08
2023-07-11T08:56:27.781Z,83.09
2023-07-11T08:57:27.778Z,84.75
2023-07-11T08:58:27.752Z,83.62
2023-07-11T08:59:27.742Z,85.22
2023-07-11T09:00:27.727Z,86.07
2023-07-11T09:01:27.714Z,84.80
2023-07-11T09:02:27.760Z,86.24
2023-07-11T09:03:27.839Z,86.20
2023-07-11T09:04:27.677Z,87.85
2023-07-11T09:05:27.672Z,86.95
2023-07-11T09:06:27.645Z,84.06
2023-07-11T09:07:27.641Z,83.67
2023-07-11T09:08:27.629Z,84.01
2023-07-11T09:09:27.626Z,85.78
2023-07-11T09:10:42.356Z,82.77
2023-07-11T09:11:28.602Z,82.88
2023-07-11T09:12:27.579Z,83.18
2023-07-11T09:13:27.755Z,82.98
2023-07-11T09:14:27.579Z,83.44
2023-07-11T09:15:27.566Z,83.64
2023-07-11T09:16:27.576Z,84.36
2023-07-11T09:17:27.574Z,83.25
2023-07-11T09:18:27.530Z,82.81
2023-07-11T09:19:27.514Z,83.17
2023-07-11T09:20:27.494Z,83.34
2023-07-11T09:21:27.492Z,79.94
2023-07-11T09:22:27.630Z,78.26
2023-07-11T09:23:38.025Z,77.54
2023-07-11T09:24:28.466Z,77.63
2023-07-11T09:25:28.293Z,78.00
2023-07-11T09:26:27.469Z,74.71
2023-07-11T09:27:27.429Z,73.52
2023-07-11T09:28:27.400Z,73.58
2023-07-11T09:29:27.397Z,75.69
2023-07-11T09:30:27.376Z,74.65
2023-07-11T09:31:27.429Z,72.68
2023-07-11T09:32:27.440Z,72.42
2023-07-11T09:33:27.393Z,71.10
2023-07-11T09:34:27.314Z,72.70
2023-07-11T09:35:27.335Z,69.83
2023-07-11T09:36:27.279Z,61.73
2023-07-11T09:37:27.270Z,62.53
2023-07-11T09:38:27.257Z,65.18
2023-07-11T09:39:27.253Z,60.76
2023-07-11T09:40:27.255Z,55.10
2023-07-11T09:41:37.423Z,53.53
2023-07-11T09:42:28.209Z,53.68
2023-07-11T09:43:27.219Z,54.35
2023-07-11T09:44:27.189Z,54.05
2023-07-11T09:45:27.210Z,53.18
2023-07-11T09:46:27.230Z,57.81
2023-07-11T09:47:27.242Z,62.30
2023-07-11T09:48:27.162Z,68.92
2023-07-11T09:49:27.130Z,69.24
2023-07-11T09:50:39.283Z,68.89
2023-07-11T09:51:28.117Z,68.49
2023-07-11T09:52:27.096Z,68.95
2023-07-11T09:53:27.078Z,64.34
2023-07-11T09:54:27.097Z,65.34
2023-07-11T09:55:27.064Z,65.63
2023-07-11T09:56:27.038Z,59.90
2023-07-11T09:57:27.036Z,58.60
2023-07-11T09:58:27.023Z,59.36
2023-07-11T09:59:27.897Z,55.93
2023-07-11T10:00:27.046Z,52.57
2023-07-11T10:01:27.030Z,49.64
2023-07-11T10:02:27.027Z,50.88
2023-07-11T10:03:26.960Z,51.04
2023-07-11T10:04:26.984Z,51.27
2023-07-11T10:05:26.943Z,52.44
2023-07-11T10:06:38.872Z,52.67
2023-07-11T10:07:27.905Z,48.31
2023-07-11T10:08:26.898Z,48.52
2023-07-11T10:09:26.889Z,48.00
2023-07-11T10:10:26.899Z,50.20
2023-07-11T10:11:26.872Z,51.42
2023-07-11T10:12:26.863Z,52.90
2023-07-11T10:13:37.893Z,51.56
2023-07-11T10:14:27.978Z,51.56
2023-07-11T10:15:26.832Z,51.41
2023-07-11T10:16:26.806Z,48.22
2023-07-11T10:17:26.952Z,48.13
2023-07-11T10:18:26.806Z,47.92
2023-07-11T10:19:26.742Z,48.00
2023-07-11T10:20:26.737Z,50.31
2023-07-11T10:21:31.914Z,51.51
2023-07-11T10:22:27.895Z,51.76
2023-07-11T10:23:26.668Z,52.82
2023-07-11T10:24:26.679Z,55.86
2023-07-11T10:25:26.647Z,61.04
2023-07-11T10:26:26.668Z,68.84
2023-07-11T10:27:26.618Z,71.84
2023-07-11T10:28:26.607Z,74.39
2023-07-11T10:29:26.609Z,75.65
2023-07-11T10:30:26.595Z,76.66
2023-07-11T10:31:26.641Z,80.20
2023-07-11T10:32:26.595Z,81.29
2023-07-11T10:33:30.878Z,82.30
2023-07-11T10:34:27.547Z,82.46
2023-07-11T10:35:26.522Z,83.14
2023-07-11T10:36:26.523Z,84.81
2023-07-11T10:37:26.524Z,87.44
2023-07-11T10:38:26.487Z,92.20
2023-07-11T10:39:26.477Z,93.05
2023-07-11T10:40:27.928Z,94.64
2023-07-11T10:41:26.446Z,96.09
2023-07-11T10:42:26.426Z,96.46
2023-07-11T10:43:26.432Z,97.49
2023-07-11T10:44:26.397Z,99.52
2023-07-11T10:45:26.390Z,100.15
2023-07-11T10:46:26.409Z,101.10
2023-07-11T10:47:26.396Z,103.45
2023-07-11T10:48:26.343Z,104.32
2023-07-11T10:49:26.341Z,105.25
2023-07-11T10:50:26.312Z,106.42
2023-07-11T10:51:27.646Z,106.40
2023-07-11T10:52:26.259Z,107.44
2023-07-11T10:53:26.243Z,108.48
2023-07-11T10:54:26.233Z,109.48
2023-07-11T10:55:26.224Z,109.56
2023-07-11T10:56:26.185Z,109.87
2023-07-11T10:57:33.934Z,110.68
2023-07-11T10:58:27.157Z,109.68
2023-07-11T10:59:26.138Z,110.38
2023-07-11T11:00:26.122Z,111.66
2023-07-11T11:01:26.156Z,113.94
2023-07-11T11:02:26.161Z,116.63
2023-07-11T11:03:27.509Z,116.88
2023-07-11T11:04:26.075Z,117.04
2023-07-11T11:05:26.075Z,117.16
2023-07-11T11:06:27.509Z,117.38
2023-07-11T11:07:25.991Z,117.78
2023-07-11T11:08:25.966Z,118.39
2023-07-11T11:09:25.970Z,120.39
2023-07-11T11:10:25.931Z,120.62
2023-07-11T11:11:25.912Z,120.26
2023-07-11T11:12:25.904Z,120.28
2023-07-11T11:13:27.198Z,121.13
2023-07-11T11:14:25.880Z,120.25
2023-07-11T11:15:25.848Z,121.03
2023-07-11T11:17:25.853Z,121.94
2023-07-11T11:18:25.864Z,123.36
2023-07-11T11:19:25.851Z,122.69
2023-07-11T11:20:25.770Z,124.34
2023-07-11T11:21:27.878Z,123.59
2023-07-11T11:22:25.722Z,123.65
2023-07-11T11:23:25.718Z,123.68
2023-07-11T11:24:25.689Z,123.88
2023-07-11T11:25:27.991Z,124.41
2023-07-11T11:26:26.650Z,123.70
2023-07-11T11:27:25.635Z,124.07
2023-07-11T11:28:25.623Z,124.22
2023-07-11T11:29:25.601Z,125.28
2023-07-11T11:30:25.737Z,126.45
2023-07-11T11:31:25.713Z,126.72
2023-07-11T11:32:25.550Z,126.37
2023-07-11T11:33:25.533Z,126.88
2023-07-11T11:34:25.499Z,125.11
2023-07-11T11:35:25.480Z,126.83
2023-07-11T11:36:25.473Z,126.93
2023-07-11T11:37:25.448Z,126.13
2023-07-11T11:38:25.452Z,127.67
2023-07-11T11:39:25.518Z,127.36
2023-07-11T11:40:25.545Z,126.07
2023-07-11T11:41:25.558Z,127.19
2023-07-11T11:42:25.548Z,128.36
2023-07-11T11:43:29.304Z,127.66
2023-07-11T11:46:28.339Z,127.75
2023-07-11T11:49:41.622Z,127.85
2023-07-11T11:50:55.866Z,127.90
2023-07-11T11:51:26.378Z,127.94
2023-07-11T11:53:25.267Z,127.86
2023-07-11T11:54:25.238Z,128.52
2023-07-11T11:55:25.234Z,129.44
2023-07-11T11:56:25.570Z,129.61
2023-07-11T11:57:25.179Z,130.50
2023-07-11T11:58:25.369Z,129.14
2023-07-11T11:59:25.142Z,130.46
2023-07-11T12:00:25.107Z,130.01
2023-07-11T12:01:25.101Z,130.02
2023-07-11T12:02:25.138Z,129.36
2023-07-11T12:03:25.038Z,128.73
2023-07-11T12:04:25.158Z,130.28
2023-07-11T12:05:25.009Z,130.47
2023-07-11T12:06:24.971Z,130.53
2023-07-11T12:07:24.951Z,130.64
2023-07-11T12:08:24.937Z,130.61
2023-07-11T12:09:24.911Z,129.64
2023-07-11T12:10:24.891Z,131.73
2023-07-11T12:11:24.877Z,131.65
2023-07-11T12:12:24.845Z,129.11
2023-07-11T12:13:24.827Z,130.20
2023-07-11T12:14:24.834Z,129.26
2023-07-11T12:15:24.807Z,126.19
2023-07-11T12:16:39.944Z,123.20
2023-07-11T12:17:25.956Z,121.54
2023-07-11T12:18:24.802Z,115.57
2023-07-11T12:19:24.792Z,110.87
2023-07-11T12:20:24.762Z,103.20
2023-07-11T12:21:24.771Z,97.09
2023-07-11T12:22:24.726Z,93.66
2023-07-11T12:23:38.806Z,89.73
2023-07-11T12:24:42.265Z,86.27
2023-07-11T12:25:25.686Z,84.98
2023-07-11T12:26:24.656Z,81.17
2023-07-11T12:27:24.680Z,75.80
2023-07-11T12:28:24.637Z,71.14
2023-07-11T12:29:24.607Z,67.88
2023-07-11T12:30:24.572Z,65.21
2023-07-11T12:31:24.582Z,61.02
2023-07-11T12:32:24.527Z,58.09
2023-07-11T12:33:24.593Z,56.59
2023-07-11T12:34:24.483Z,54.26
2023-07-11T12:35:24.443Z,50.83
2023-07-11T12:36:24.484Z,49.70
2023-07-11T12:37:24.448Z,48.13
2023-07-11T12:38:24.441Z,49.18
2023-07-11T12:39:24.348Z,46.42
2023-07-11T12:40:24.309Z,43.52
2023-07-11T12:41:34.927Z,43.03
2023-07-11T12:42:25.267Z,43.11
2023-07-11T12:43:24.238Z,43.15
2023-07-11T12:44:24.227Z,42.80
2023-07-11T12:45:24.199Z,40.96
2023-07-11T12:46:24.209Z,40.29
2023-07-11T12:47:24.183Z,43.16
2023-07-11T12:48:24.100Z,47.14
2023-07-11T12:49:24.105Z,51.15
2023-07-11T12:50:24.063Z,56.82
2023-07-11T12:51:24.034Z,61.23
2023-07-11T12:52:24.011Z,64.17
2023-07-11T12:53:23.972Z,65.86